Ayr, North Dakota
Current Conditions -  °F | °C
As of 3:15 PM on Monday 22 Dec 2014 (Local Time) from KBAC Reporting Station
Moderate Fog Moderate Fog  
Wind Chill: -2°   Ceiling: 200
Heat Index:   Visibility: 0.5mi
Dew Point:   Wind: 9mph
Humidity: 100%   Direction: 60°ENE
Pressure: 29.49"   Gusts: NA
Location:  47.04°N, 97.49°W
Report Text: KBAC 222115Z AUTO 06008KT 1/2SM FG OVC002 02/02 A2949 RMK AO2
Loading
Personal Weather Stations






























Interactive Weather Map New forecast layout! Learn more

10-Day Weather Forecast

Advertisements
Track Severe Weather on mobile